sensor_id;sensor_type;location;lat;lon;timestamp;P1;durP1;ratioP1;P2;durP2;ratioP2
77589;SDS011;66746;51.328;12.332;2023-02-15T00:02:19;56.10;;;26.48;;
77589;SDS011;66746;51.328;12.332;2023-02-15T00:04:46;50.95;;;24.55;;
77589;SDS011;66746;51.328;12.332;2023-02-15T00:07:13;51.25;;;25.13;;
77589;SDS011;66746;51.328;12.332;2023-02-15T00:09:39;55.65;;;24.55;;
77589;SDS011;66746;51.328;12.332;2023-02-15T00:12:05;56.42;;;27.58;;
77589;SDS011;66746;51.328;12.332;2023-02-15T00:14:30;51.83;;;24.88;;
77589;SDS011;66746;51.328;12.332;2023-02-15T00:16:55;50.70;;;24.85;;
77589;SDS011;66746;51.328;12.332;2023-02-15T00:19:22;52.43;;;25.20;;
77589;SDS011;66746;51.328;12.332;2023-02-15T00:21:47;47.30;;;23.65;;
77589;SDS011;66746;51.328;12.332;2023-02-15T00:24:14;52.20;;;23.92;;
77589;SDS011;66746;51.328;12.332;2023-02-15T00:26:41;51.08;;;23.50;;
77589;SDS011;66746;51.328;12.332;2023-02-15T00:29:07;52.00;;;24.00;;
77589;SDS011;66746;51.328;12.332;2023-02-15T00:31:34;49.38;;;23.60;;
77589;SDS011;66746;51.328;12.332;2023-02-15T00:34:03;52.13;;;24.48;;
77589;SDS011;66746;51.328;12.332;2023-02-15T00:36:30;47.08;;;22.38;;
77589;SDS011;66746;51.328;12.332;2023-02-15T00:38:56;44.40;;;22.48;;
77589;SDS011;66746;51.328;12.332;2023-02-15T00:41:21;49.85;;;23.67;;
77589;SDS011;66746;51.328;12.332;2023-02-15T00:43:46;46.77;;;23.73;;
77589;SDS011;66746;51.328;12.332;2023-02-15T00:46:12;46.75;;;23.58;;
77589;SDS011;66746;51.328;12.332;2023-02-15T00:48:37;47.50;;;21.98;;
77589;SDS011;66746;51.328;12.332;2023-02-15T00:51:02;43.25;;;21.92;;
77589;SDS011;66746;51.328;12.332;2023-02-15T00:53:29;43.47;;;21.08;;
77589;SDS011;66746;51.328;12.332;2023-02-15T00:55:55;48.72;;;23.40;;
77589;SDS011;66746;51.328;12.332;2023-02-15T00:58:20;46.42;;;23.60;;
77589;SDS011;66746;51.328;12.332;2023-02-15T01:00:46;44.35;;;23.15;;
77589;SDS011;66746;51.328;12.332;2023-02-15T01:03:13;43.20;;;23.10;;
77589;SDS011;66746;51.328;12.332;2023-02-15T01:05:39;46.40;;;23.27;;
77589;SDS011;66746;51.328;12.332;2023-02-15T01:08:04;40.42;;;21.05;;
77589;SDS011;66746;51.328;12.332;2023-02-15T01:10:31;46.90;;;20.52;;
77589;SDS011;66746;51.328;12.332;2023-02-15T01:12:58;46.08;;;24.02;;
77589;SDS011;66746;51.328;12.332;2023-02-15T01:15:23;39.80;;;20.98;;
77589;SDS011;66746;51.328;12.332;2023-02-15T01:17:49;43.20;;;22.35;;
77589;SDS011;66746;51.328;12.332;2023-02-15T01:20:16;40.47;;;21.92;;
77589;SDS011;66746;51.328;12.332;2023-02-15T01:22:41;42.38;;;20.92;;
77589;SDS011;66746;51.328;12.332;2023-02-15T01:25:06;42.37;;;20.53;;
77589;SDS011;66746;51.328;12.332;2023-02-15T01:27:33;36.97;;;20.10;;
77589;SDS011;66746;51.328;12.332;2023-02-15T01:29:59;36.85;;;20.02;;
77589;SDS011;66746;51.328;12.332;2023-02-15T01:32:24;36.85;;;19.80;;
77589;SDS011;66746;51.328;12.332;2023-02-15T01:34:50;37.55;;;19.58;;
77589;SDS011;66746;51.328;12.332;2023-02-15T01:37:15;40.05;;;21.25;;
77589;SDS011;66746;51.328;12.332;2023-02-15T01:39:40;43.55;;;21.92;;
77589;SDS011;66746;51.328;12.332;2023-02-15T01:42:07;43.90;;;21.98;;
77589;SDS011;66746;51.328;12.332;2023-02-15T01:44:46;40.78;;;20.42;;
77589;SDS011;66746;51.328;12.332;2023-02-15T01:47:15;41.08;;;20.08;;
77589;SDS011;66746;51.328;12.332;2023-02-15T01:49:43;35.63;;;20.67;;
77589;SDS011;66746;51.328;12.332;2023-02-15T01:52:23;36.03;;;18.85;;
77589;SDS011;66746;51.328;12.332;2023-02-15T01:54:48;34.03;;;19.88;;
77589;SDS011;66746;51.328;12.332;2023-02-15T01:57:16;39.65;;;20.48;;
77589;SDS011;66746;51.328;12.332;2023-02-15T01:59:48;38.85;;;19.52;;
77589;SDS011;66746;51.328;12.332;2023-02-15T02:02:21;39.25;;;20.02;;
77589;SDS011;66746;51.328;12.332;2023-02-15T02:04:48;39.60;;;19.85;;
77589;SDS011;66746;51.328;12.332;2023-02-15T02:07:17;40.70;;;20.60;;
77589;SDS011;66746;51.328;12.332;2023-02-15T02:09:44;34.15;;;18.30;;
77589;SDS011;66746;51.328;12.332;2023-02-15T02:12:10;36.15;;;19.15;;
77589;SDS011;66746;51.328;12.332;2023-02-15T02:14:36;37.22;;;19.40;;
77589;SDS011;66746;51.328;12.332;2023-02-15T02:17:05;37.45;;;20.40;;
77589;SDS011;66746;51.328;12.332;2023-02-15T02:19:47;41.42;;;20.65;;
77589;SDS011;66746;51.328;12.332;2023-02-15T02:25:49;32.83;;;19.20;;
77589;SDS011;66746;51.328;12.332;2023-02-15T02:31:43;35.15;;;17.45;;
77589;SDS011;66746;51.328;12.332;2023-02-15T02:34:26;31.08;;;16.42;;
77589;SDS011;66746;51.328;12.332;2023-02-15T02:36:55;36.15;;;18.50;;
77589;SDS011;66746;51.328;12.332;2023-02-15T02:39:28;34.83;;;17.73;;
77589;SDS011;66746;51.328;12.332;2023-02-15T02:42:03;40.45;;;18.48;;
77589;SDS011;66746;51.328;12.332;2023-02-15T02:44:38;33.05;;;16.95;;
77589;SDS011;66746;51.328;12.332;2023-02-15T02:47:08;29.98;;;17.80;;
77589;SDS011;66746;51.328;12.332;2023-02-15T02:49:38;30.75;;;17.85;;
77589;SDS011;66746;51.328;12.332;2023-02-15T02:52:06;27.42;;;16.00;;
77589;SDS011;66746;51.328;12.332;2023-02-15T02:54:51;33.97;;;19.02;;
77589;SDS011;66746;51.328;12.332;2023-02-15T02:57:18;34.83;;;18.10;;
77589;SDS011;66746;51.328;12.332;2023-02-15T02:59:44;36.28;;;18.45;;
77589;SDS011;66746;51.328;12.332;2023-02-15T03:02:15;33.53;;;19.15;;
77589;SDS011;66746;51.328;12.332;2023-02-15T03:04:46;32.15;;;17.67;;
77589;SDS011;66746;51.328;12.332;2023-02-15T03:07:15;33.88;;;19.58;;
77589;SDS011;66746;51.328;12.332;2023-02-15T03:09:45;37.63;;;19.85;;
77589;SDS011;66746;51.328;12.332;2023-02-15T03:12:13;37.88;;;18.98;;
77589;SDS011;66746;51.328;12.332;2023-02-15T03:14:41;37.05;;;17.52;;
77589;SDS011;66746;51.328;12.332;2023-02-15T03:17:09;32.65;;;18.20;;
77589;SDS011;66746;51.328;12.332;2023-02-15T03:19:37;33.38;;;17.75;;
77589;SDS011;66746;51.328;12.332;2023-02-15T03:22:05;34.92;;;18.55;;
77589;SDS011;66746;51.328;12.332;2023-02-15T03:24:34;30.80;;;18.70;;
77589;SDS011;66746;51.328;12.332;2023-02-15T03:27:03;32.75;;;16.67;;
77589;SDS011;66746;51.328;12.332;2023-02-15T03:29:33;32.05;;;16.83;;
77589;SDS011;66746;51.328;12.332;2023-02-15T03:32:01;32.17;;;17.08;;
77589;SDS011;66746;51.328;12.332;2023-02-15T03:34:30;31.10;;;16.67;;
77589;SDS011;66746;51.328;12.332;2023-02-15T03:36:56;33.53;;;17.30;;
77589;SDS011;66746;51.328;12.332;2023-02-15T03:39:27;31.23;;;16.42;;
77589;SDS011;66746;51.328;12.332;2023-02-15T03:41:59;31.13;;;17.25;;
77589;SDS011;66746;51.328;12.332;2023-02-15T03:44:42;28.55;;;15.48;;
77589;SDS011;66746;51.328;12.332;2023-02-15T03:47:15;29.55;;;14.93;;
77589;SDS011;66746;51.328;12.332;2023-02-15T03:49:43;31.13;;;17.15;;
77589;SDS011;66746;51.328;12.332;2023-02-15T03:52:12;33.60;;;17.80;;
77589;SDS011;66746;51.328;12.332;2023-02-15T03:54:42;32.67;;;16.88;;
77589;SDS011;66746;51.328;12.332;2023-02-15T03:57:09;33.10;;;16.73;;
77589;SDS011;66746;51.328;12.332;2023-02-15T03:59:36;28.73;;;16.23;;
77589;SDS011;66746;51.328;12.332;2023-02-15T04:02:04;27.23;;;14.50;;
77589;SDS011;66746;51.328;12.332;2023-02-15T04:04:41;28.42;;;14.60;;
77589;SDS011;66746;51.328;12.332;2023-02-15T04:07:11;29.58;;;15.98;;
77589;SDS011;66746;51.328;12.332;2023-02-15T04:09:36;27.08;;;15.15;;
77589;SDS011;66746;51.328;12.332;2023-02-15T04:12:05;31.08;;;17.27;;
77589;SDS011;66746;51.328;12.332;2023-02-15T04:14:30;30.52;;;15.73;;
77589;SDS011;66746;51.328;12.332;2023-02-15T04:16:55;34.15;;;18.10;;
77589;SDS011;66746;51.328;12.332;2023-02-15T04:19:21;29.37;;;15.40;;
77589;SDS011;66746;51.328;12.332;2023-02-15T04:21:46;30.20;;;16.40;;
77589;SDS011;66746;51.328;12.332;2023-02-15T04:24:11;30.45;;;14.60;;
77589;SDS011;66746;51.328;12.332;2023-02-15T04:26:36;32.75;;;16.58;;
77589;SDS011;66746;51.328;12.332;2023-02-15T04:29:03;29.20;;;15.60;;
77589;SDS011;66746;51.328;12.332;2023-02-15T04:31:28;28.50;;;16.35;;
77589;SDS011;66746;51.328;12.332;2023-02-15T04:33:54;27.73;;;15.03;;
77589;SDS011;66746;51.328;12.332;2023-02-15T04:36:19;25.70;;;14.93;;
77589;SDS011;66746;51.328;12.332;2023-02-15T04:38:44;28.10;;;15.57;;
77589;SDS011;66746;51.328;12.332;2023-02-15T04:41:09;26.40;;;15.73;;
77589;SDS011;66746;51.328;12.332;2023-02-15T04:43:35;27.03;;;16.10;;
77589;SDS011;66746;51.328;12.332;2023-02-15T04:46:01;35.75;;;17.92;;
77589;SDS011;66746;51.328;12.332;2023-02-15T04:48:27;33.30;;;16.77;;
77589;SDS011;66746;51.328;12.332;2023-02-15T04:50:52;32.47;;;17.30;;
77589;SDS011;66746;51.328;12.332;2023-02-15T04:53:17;36.03;;;18.27;;
77589;SDS011;66746;51.328;12.332;2023-02-15T04:55:44;31.95;;;16.02;;
77589;SDS011;66746;51.328;12.332;2023-02-15T04:58:09;27.37;;;15.57;;
77589;SDS011;66746;51.328;12.332;2023-02-15T05:00:35;27.58;;;13.65;;
77589;SDS011;66746;51.328;12.332;2023-02-15T05:03:01;24.17;;;15.20;;
77589;SDS011;66746;51.328;12.332;2023-02-15T05:05:27;29.30;;;14.68;;
77589;SDS011;66746;51.328;12.332;2023-02-15T05:07:52;27.38;;;15.00;;
77589;SDS011;66746;51.328;12.332;2023-02-15T05:10:17;24.90;;;13.95;;
77589;SDS011;66746;51.328;12.332;2023-02-15T05:12:45;27.98;;;16.45;;
77589;SDS011;66746;51.328;12.332;2023-02-15T05:15:10;27.20;;;13.15;;
77589;SDS011;66746;51.328;12.332;2023-02-15T05:17:35;24.05;;;13.93;;
77589;SDS011;66746;51.328;12.332;2023-02-15T05:20:02;27.67;;;14.73;;
77589;SDS011;66746;51.328;12.332;2023-02-15T05:22:28;35.92;;;15.38;;
77589;SDS011;66746;51.328;12.332;2023-02-15T05:24:54;27.25;;;14.57;;
77589;SDS011;66746;51.328;12.332;2023-02-15T05:27:19;30.08;;;15.80;;
77589;SDS011;66746;51.328;12.332;2023-02-15T05:29:44;24.10;;;14.95;;
77589;SDS011;66746;51.328;12.332;2023-02-15T05:32:11;26.92;;;14.52;;
77589;SDS011;66746;51.328;12.332;2023-02-15T05:34:37;27.70;;;15.18;;
77589;SDS011;66746;51.328;12.332;2023-02-15T05:37:04;25.40;;;14.20;;
77589;SDS011;66746;51.328;12.332;2023-02-15T05:39:29;26.98;;;14.80;;
77589;SDS011;66746;51.328;12.332;2023-02-15T05:41:57;26.07;;;15.33;;
77589;SDS011;66746;51.328;12.332;2023-02-15T05:44:23;25.73;;;15.05;;
77589;SDS011;66746;51.328;12.332;2023-02-15T05:46:48;28.50;;;14.73;;
77589;SDS011;66746;51.328;12.332;2023-02-15T05:49:14;24.75;;;14.60;;
77589;SDS011;66746;51.328;12.332;2023-02-15T05:51:40;25.50;;;15.40;;
77589;SDS011;66746;51.328;12.332;2023-02-15T05:54:07;23.77;;;13.70;;
77589;SDS011;66746;51.328;12.332;2023-02-15T05:56:32;27.10;;;15.60;;
77589;SDS011;66746;51.328;12.332;2023-02-15T05:59:01;25.13;;;13.70;;
77589;SDS011;66746;51.328;12.332;2023-02-15T06:01:26;20.88;;;13.90;;
77589;SDS011;66746;51.328;12.332;2023-02-15T06:03:51;27.50;;;15.25;;
77589;SDS011;66746;51.328;12.332;2023-02-15T06:06:17;29.98;;;13.93;;
77589;SDS011;66746;51.328;12.332;2023-02-15T06:08:42;24.73;;;14.57;;
77589;SDS011;66746;51.328;12.332;2023-02-15T06:11:09;26.10;;;14.63;;
77589;SDS011;66746;51.328;12.332;2023-02-15T06:13:35;23.35;;;13.65;;
77589;SDS011;66746;51.328;12.332;2023-02-15T06:16:01;26.58;;;14.27;;
77589;SDS011;66746;51.328;12.332;2023-02-15T06:18:26;29.95;;;14.75;;
77589;SDS011;66746;51.328;12.332;2023-02-15T06:20:51;27.50;;;14.05;;
77589;SDS011;66746;51.328;12.332;2023-02-15T06:23:17;31.17;;;15.60;;
77589;SDS011;66746;51.328;12.332;2023-02-15T06:25:45;25.92;;;15.10;;
77589;SDS011;66746;51.328;12.332;2023-02-15T06:28:12;26.63;;;15.45;;
77589;SDS011;66746;51.328;12.332;2023-02-15T06:30:37;25.63;;;14.57;;
77589;SDS011;66746;51.328;12.332;2023-02-15T06:33:02;28.13;;;15.27;;
77589;SDS011;66746;51.328;12.332;2023-02-15T06:35:28;24.38;;;13.95;;
77589;SDS011;66746;51.328;12.332;2023-02-15T06:37:53;24.55;;;15.07;;
77589;SDS011;66746;51.328;12.332;2023-02-15T06:40:18;23.15;;;13.30;;
77589;SDS011;66746;51.328;12.332;2023-02-15T06:42:44;25.23;;;14.47;;
77589;SDS011;66746;51.328;12.332;2023-02-15T06:45:10;27.02;;;13.63;;
77589;SDS011;66746;51.328;12.332;2023-02-15T06:47:36;23.73;;;14.57;;
77589;SDS011;66746;51.328;12.332;2023-02-15T06:50:02;24.80;;;13.98;;
77589;SDS011;66746;51.328;12.332;2023-02-15T06:52:28;27.40;;;14.70;;
77589;SDS011;66746;51.328;12.332;2023-02-15T06:54:53;25.13;;;14.73;;
77589;SDS011;66746;51.328;12.332;2023-02-15T06:57:18;28.10;;;14.35;;
77589;SDS011;66746;51.328;12.332;2023-02-15T06:59:45;25.83;;;14.05;;
77589;SDS011;66746;51.328;12.332;2023-02-15T07:02:20;26.80;;;15.30;;
77589;SDS011;66746;51.328;12.332;2023-02-15T07:04:45;24.85;;;14.93;;
77589;SDS011;66746;51.328;12.332;2023-02-15T07:07:12;27.85;;;14.93;;
77589;SDS011;66746;51.328;12.332;2023-02-15T07:09:37;26.60;;;14.27;;
77589;SDS011;66746;51.328;12.332;2023-02-15T07:12:03;24.15;;;13.40;;
77589;SDS011;66746;51.328;12.332;2023-02-15T07:14:29;23.60;;;12.88;;
77589;SDS011;66746;51.328;12.332;2023-02-15T07:16:54;23.27;;;14.48;;
77589;SDS011;66746;51.328;12.332;2023-02-15T07:19:21;22.48;;;12.45;;
77589;SDS011;66746;51.328;12.332;2023-02-15T07:21:46;25.02;;;12.90;;
77589;SDS011;66746;51.328;12.332;2023-02-15T07:24:17;19.27;;;12.13;;
77589;SDS011;66746;51.328;12.332;2023-02-15T07:26:42;23.37;;;13.43;;
77589;SDS011;66746;51.328;12.332;2023-02-15T07:29:07;19.40;;;11.43;;
77589;SDS011;66746;51.328;12.332;2023-02-15T07:31:33;20.70;;;11.63;;
77589;SDS011;66746;51.328;12.332;2023-02-15T07:33:58;18.43;;;11.30;;
77589;SDS011;66746;51.328;12.332;2023-02-15T07:36:24;18.23;;;11.73;;
77589;SDS011;66746;51.328;12.332;2023-02-15T07:38:50;20.00;;;11.52;;
77589;SDS011;66746;51.328;12.332;2023-02-15T07:41:15;17.27;;;10.93;;
77589;SDS011;66746;51.328;12.332;2023-02-15T07:43:42;19.80;;;11.23;;
77589;SDS011;66746;51.328;12.332;2023-02-15T07:46:09;21.13;;;12.23;;
77589;SDS011;66746;51.328;12.332;2023-02-15T07:48:36;20.77;;;13.13;;
77589;SDS011;66746;51.328;12.332;2023-02-15T07:51:01;21.08;;;11.60;;
77589;SDS011;66746;51.328;12.332;2023-02-15T07:53:30;17.80;;;12.00;;
77589;SDS011;66746;51.328;12.332;2023-02-15T07:55:57;18.05;;;10.63;;
77589;SDS011;66746;51.328;12.332;2023-02-15T07:58:23;18.75;;;11.10;;
77589;SDS011;66746;51.328;12.332;2023-02-15T08:00:50;19.90;;;11.15;;
77589;SDS011;66746;51.328;12.332;2023-02-15T08:03:15;20.50;;;11.60;;
77589;SDS011;66746;51.328;12.332;2023-02-15T08:05:41;17.45;;;10.95;;
77589;SDS011;66746;51.328;12.332;2023-02-15T08:08:08;14.15;;;10.52;;
77589;SDS011;66746;51.328;12.332;2023-02-15T08:10:36;16.83;;;9.90;;
77589;SDS011;66746;51.328;12.332;2023-02-15T08:13:01;16.40;;;10.27;;
77589;SDS011;66746;51.328;12.332;2023-02-15T08:15:26;14.53;;;9.17;;
77589;SDS011;66746;51.328;12.332;2023-02-15T08:17:51;16.03;;;10.30;;
77589;SDS011;66746;51.328;12.332;2023-02-15T08:20:17;15.95;;;9.68;;
77589;SDS011;66746;51.328;12.332;2023-02-15T08:22:42;16.83;;;11.70;;
77589;SDS011;66746;51.328;12.332;2023-02-15T08:25:07;15.23;;;9.32;;
77589;SDS011;66746;51.328;12.332;2023-02-15T08:27:34;14.90;;;9.40;;
77589;SDS011;66746;51.328;12.332;2023-02-15T08:29:59;15.80;;;9.88;;
77589;SDS011;66746;51.328;12.332;2023-02-15T08:32:24;15.15;;;10.80;;
77589;SDS011;66746;51.328;12.332;2023-02-15T08:34:51;14.63;;;10.13;;
77589;SDS011;66746;51.328;12.332;2023-02-15T08:37:16;14.40;;;9.27;;
77589;SDS011;66746;51.328;12.332;2023-02-15T08:39:44;17.58;;;10.45;;
77589;SDS011;66746;51.328;12.332;2023-02-15T08:42:09;15.50;;;10.07;;
77589;SDS011;66746;51.328;12.332;2023-02-15T08:44:35;14.60;;;9.75;;
77589;SDS011;66746;51.328;12.332;2023-02-15T08:47:01;15.73;;;9.70;;
77589;SDS011;66746;51.328;12.332;2023-02-15T08:49:26;15.20;;;8.60;;
77589;SDS011;66746;51.328;12.332;2023-02-15T08:51:51;13.37;;;9.37;;
77589;SDS011;66746;51.328;12.332;2023-02-15T08:54:20;14.43;;;9.27;;
77589;SDS011;66746;51.328;12.332;2023-02-15T08:56:51;14.45;;;8.95;;
77589;SDS011;66746;51.328;12.332;2023-02-15T08:59:22;11.75;;;7.47;;
77589;SDS011;66746;51.328;12.332;2023-02-15T09:01:52;13.90;;;8.57;;
77589;SDS011;66746;51.328;12.332;2023-02-15T09:04:20;10.32;;;7.07;;
77589;SDS011;66746;51.328;12.332;2023-02-15T09:06:48;12.52;;;8.07;;
77589;SDS011;66746;51.328;12.332;2023-02-15T09:09:14;11.38;;;7.05;;
77589;SDS011;66746;51.328;12.332;2023-02-15T09:11:41;11.23;;;7.57;;
77589;SDS011;66746;51.328;12.332;2023-02-15T09:14:09;11.02;;;6.63;;
77589;SDS011;66746;51.328;12.332;2023-02-15T09:16:36;10.07;;;7.88;;
77589;SDS011;66746;51.328;12.332;2023-02-15T09:19:03;11.35;;;8.27;;
77589;SDS011;66746;51.328;12.332;2023-02-15T09:21:29;9.65;;;6.63;;
77589;SDS011;66746;51.328;12.332;2023-02-15T09:23:56;9.20;;;6.45;;
77589;SDS011;66746;51.328;12.332;2023-02-15T09:26:23;7.93;;;6.75;;
77589;SDS011;66746;51.328;12.332;2023-02-15T09:28:51;9.43;;;6.75;;
77589;SDS011;66746;51.328;12.332;2023-02-15T09:31:18;8.63;;;6.22;;
77589;SDS011;66746;51.328;12.332;2023-02-15T09:33:50;8.90;;;5.78;;
77589;SDS011;66746;51.328;12.332;2023-02-15T09:36:25;7.63;;;6.07;;
77589;SDS011;66746;51.328;12.332;2023-02-15T09:38:54;9.65;;;6.45;;
77589;SDS011;66746;51.328;12.332;2023-02-15T09:41:24;9.23;;;6.72;;
77589;SDS011;66746;51.328;12.332;2023-02-15T09:44:06;9.55;;;6.00;;
77589;SDS011;66746;51.328;12.332;2023-02-15T09:46:42;9.35;;;7.40;;
77589;SDS011;66746;51.328;12.332;2023-02-15T09:49:17;9.10;;;6.97;;
77589;SDS011;66746;51.328;12.332;2023-02-15T09:52:06;7.57;;;5.93;;
77589;SDS011;66746;51.328;12.332;2023-02-15T09:54:46;10.40;;;6.22;;
77589;SDS011;66746;51.328;12.332;2023-02-15T09:57:30;10.38;;;6.95;;
77589;SDS011;66746;51.328;12.332;2023-02-15T10:00:04;8.25;;;6.63;;
77589;SDS011;66746;51.328;12.332;2023-02-15T10:02:42;9.10;;;6.68;;
77589;SDS011;66746;51.328;12.332;2023-02-15T10:05:23;10.82;;;6.95;;
77589;SDS011;66746;51.328;12.332;2023-02-15T10:08:00;8.80;;;7.45;;
77589;SDS011;66746;51.328;12.332;2023-02-15T10:10:38;9.80;;;7.13;;
77589;SDS011;66746;51.328;12.332;2023-02-15T10:13:21;8.85;;;6.95;;
77589;SDS011;66746;51.328;12.332;2023-02-15T10:15:58;8.90;;;7.47;;
77589;SDS011;66746;51.328;12.332;2023-02-15T10:18:40;8.38;;;6.55;;
77589;SDS011;66746;51.328;12.332;2023-02-15T10:21:23;8.75;;;6.07;;
77589;SDS011;66746;51.328;12.332;2023-02-15T10:24:08;10.00;;;6.38;;
77589;SDS011;66746;51.328;12.332;2023-02-15T10:26:43;8.80;;;6.45;;
77589;SDS011;66746;51.328;12.332;2023-02-15T10:29:09;10.65;;;6.78;;
77589;SDS011;66746;51.328;12.332;2023-02-15T10:31:43;7.93;;;5.60;;
77589;SDS011;66746;51.328;12.332;2023-02-15T10:34:14;7.95;;;5.28;;
77589;SDS011;66746;51.328;12.332;2023-02-15T10:36:53;6.45;;;4.90;;
77589;SDS011;66746;51.328;12.332;2023-02-15T10:39:32;9.73;;;5.88;;
77589;SDS011;66746;51.328;12.332;2023-02-15T10:44:39;6.07;;;4.78;;
77589;SDS011;66746;51.328;12.332;2023-02-15T10:50:11;9.27;;;6.20;;
77589;SDS011;66746;51.328;12.332;2023-02-15T10:52:50;8.35;;;6.22;;
77589;SDS011;66746;51.328;12.332;2023-02-15T10:55:27;8.45;;;6.57;;
77589;SDS011;66746;51.328;12.332;2023-02-15T10:58:03;10.05;;;5.63;;
77589;SDS011;66746;51.328;12.332;2023-02-15T11:00:35;8.10;;;5.97;;
77589;SDS011;66746;51.328;12.332;2023-02-15T11:03:14;10.52;;;6.35;;
77589;SDS011;66746;51.328;12.332;2023-02-15T11:05:50;8.70;;;5.80;;
77589;SDS011;66746;51.328;12.332;2023-02-15T11:08:25;7.18;;;5.60;;
77589;SDS011;66746;51.328;12.332;2023-02-15T11:10:56;8.55;;;5.50;;
77589;SDS011;66746;51.328;12.332;2023-02-15T11:13:25;7.72;;;5.63;;
77589;SDS011;66746;51.328;12.332;2023-02-15T11:15:55;9.38;;;6.22;;
77589;SDS011;66746;51.328;12.332;2023-02-15T11:18:25;6.97;;;5.78;;
77589;SDS011;66746;51.328;12.332;2023-02-15T11:20:57;9.77;;;5.30;;
77589;SDS011;66746;51.328;12.332;2023-02-15T11:23:27;6.45;;;5.15;;
77589;SDS011;66746;51.328;12.332;2023-02-15T11:25:54;9.35;;;5.78;;
77589;SDS011;66746;51.328;12.332;2023-02-15T11:28:25;7.88;;;6.20;;
77589;SDS011;66746;51.328;12.332;2023-02-15T11:30:55;7.38;;;6.45;;
77589;SDS011;66746;51.328;12.332;2023-02-15T11:33:24;11.40;;;5.50;;
77589;SDS011;66746;51.328;12.332;2023-02-15T11:35:55;9.02;;;6.35;;
77589;SDS011;66746;51.328;12.332;2023-02-15T11:38:26;8.70;;;5.72;;
77589;SDS011;66746;51.328;12.332;2023-02-15T11:40:54;7.55;;;6.10;;
77589;SDS011;66746;51.328;12.332;2023-02-15T11:43:23;8.48;;;7.18;;
77589;SDS011;66746;51.328;12.332;2023-02-15T11:45:54;7.70;;;6.18;;
77589;SDS011;66746;51.328;12.332;2023-02-15T11:48:19;9.95;;;6.57;;
77589;SDS011;66746;51.328;12.332;2023-02-15T11:50:45;9.80;;;6.47;;
77589;SDS011;66746;51.328;12.332;2023-02-15T11:53:12;9.55;;;6.68;;
77589;SDS011;66746;51.328;12.332;2023-02-15T11:55:39;7.60;;;5.82;;
77589;SDS011;66746;51.328;12.332;2023-02-15T11:58:09;8.55;;;6.22;;
77589;SDS011;66746;51.328;12.332;2023-02-15T12:00:44;9.55;;;7.10;;
77589;SDS011;66746;51.328;12.332;2023-02-15T12:03:14;8.15;;;6.80;;
77589;SDS011;66746;51.328;12.332;2023-02-15T12:05:42;8.73;;;6.55;;
77589;SDS011;66746;51.328;12.332;2023-02-15T12:08:12;8.00;;;6.97;;
77589;SDS011;66746;51.328;12.332;2023-02-15T12:10:42;8.07;;;6.40;;
77589;SDS011;66746;51.328;12.332;2023-02-15T12:13:18;7.05;;;6.18;;
77589;SDS011;66746;51.328;12.332;2023-02-15T12:15:46;8.50;;;6.07;;
77589;SDS011;66746;51.328;12.332;2023-02-15T12:21:02;6.90;;;5.65;;
77589;SDS011;66746;51.328;12.332;2023-02-15T12:23:30;7.60;;;6.18;;
77589;SDS011;66746;51.328;12.332;2023-02-15T12:25:57;8.63;;;5.97;;
77589;SDS011;66746;51.328;12.332;2023-02-15T12:28:24;9.90;;;6.70;;
77589;SDS011;66746;51.328;12.332;2023-02-15T12:30:56;7.82;;;5.82;;
77589;SDS011;66746;51.328;12.332;2023-02-15T12:33:25;8.30;;;6.43;;
77589;SDS011;66746;51.328;12.332;2023-02-15T12:35:57;8.15;;;5.82;;
77589;SDS011;66746;51.328;12.332;2023-02-15T12:38:26;9.35;;;5.80;;
77589;SDS011;66746;51.328;12.332;2023-02-15T12:40:58;9.63;;;5.50;;
77589;SDS011;66746;51.328;12.332;2023-02-15T12:43:31;6.70;;;5.63;;
77589;SDS011;66746;51.328;12.332;2023-02-15T12:48:47;8.38;;;5.95;;
77589;SDS011;66746;51.328;12.332;2023-02-15T12:51:31;7.03;;;5.82;;
77589;SDS011;66746;51.328;12.332;2023-02-15T12:54:15;8.63;;;5.93;;
77589;SDS011;66746;51.328;12.332;2023-02-15T12:56:50;7.40;;;5.78;;
77589;SDS011;66746;51.328;12.332;2023-02-15T12:59:16;6.63;;;5.07;;
77589;SDS011;66746;51.328;12.332;2023-02-15T13:01:49;6.32;;;5.03;;
77589;SDS011;66746;51.328;12.332;2023-02-15T13:04:19;6.00;;;4.85;;
77589;SDS011;66746;51.328;12.332;2023-02-15T13:06:50;6.28;;;5.40;;
77589;SDS011;66746;51.328;12.332;2023-02-15T13:09:18;6.50;;;4.55;;
77589;SDS011;66746;51.328;12.332;2023-02-15T13:11:50;8.95;;;6.25;;
77589;SDS011;66746;51.328;12.332;2023-02-15T13:14:16;7.60;;;4.97;;
77589;SDS011;66746;51.328;12.332;2023-02-15T13:16:43;6.25;;;4.60;;
77589;SDS011;66746;51.328;12.332;2023-02-15T13:19:12;6.53;;;5.03;;
77589;SDS011;66746;51.328;12.332;2023-02-15T13:21:43;6.05;;;4.65;;
77589;SDS011;66746;51.328;12.332;2023-02-15T13:24:14;5.70;;;4.57;;
77589;SDS011;66746;51.328;12.332;2023-02-15T13:26:43;6.43;;;4.90;;
77589;SDS011;66746;51.328;12.332;2023-02-15T13:29:11;5.88;;;4.40;;
77589;SDS011;66746;51.328;12.332;2023-02-15T13:31:43;5.60;;;4.32;;
77589;SDS011;66746;51.328;12.332;2023-02-15T13:34:22;5.68;;;4.80;;
77589;SDS011;66746;51.328;12.332;2023-02-15T13:36:51;5.82;;;4.47;;
77589;SDS011;66746;51.328;12.332;2023-02-15T13:39:24;6.60;;;5.63;;
77589;SDS011;66746;51.328;12.332;2023-02-15T13:41:56;5.85;;;4.57;;
77589;SDS011;66746;51.328;12.332;2023-02-15T13:44:37;5.25;;;4.75;;
77589;SDS011;66746;51.328;12.332;2023-02-15T13:47:21;6.10;;;4.15;;
77589;SDS011;66746;51.328;12.332;2023-02-15T13:49:54;6.53;;;5.10;;
77589;SDS011;66746;51.328;12.332;2023-02-15T13:52:28;5.60;;;4.22;;
77589;SDS011;66746;51.328;12.332;2023-02-15T13:55:08;6.60;;;4.32;;
77589;SDS011;66746;51.328;12.332;2023-02-15T13:57:59;7.28;;;5.10;;
77589;SDS011;66746;51.328;12.332;2023-02-15T14:00:35;4.97;;;4.30;;
77589;SDS011;66746;51.328;12.332;2023-02-15T14:03:16;5.65;;;4.63;;
77589;SDS011;66746;51.328;12.332;2023-02-15T14:06:09;5.38;;;4.10;;
77589;SDS011;66746;51.328;12.332;2023-02-15T14:08:48;5.60;;;4.13;;
77589;SDS011;66746;51.328;12.332;2023-02-15T14:11:26;6.38;;;4.60;;
77589;SDS011;66746;51.328;12.332;2023-02-15T14:14:05;4.47;;;3.72;;
77589;SDS011;66746;51.328;12.332;2023-02-15T14:16:48;5.65;;;4.13;;
77589;SDS011;66746;51.328;12.332;2023-02-15T14:19:23;5.57;;;3.83;;
77589;SDS011;66746;51.328;12.332;2023-02-15T14:21:54;5.40;;;4.10;;
77589;SDS011;66746;51.328;12.332;2023-02-15T14:24:26;5.13;;;3.33;;
77589;SDS011;66746;51.328;12.332;2023-02-15T14:27:00;4.57;;;3.45;;
77589;SDS011;66746;51.328;12.332;2023-02-15T14:29:40;3.90;;;3.47;;
77589;SDS011;66746;51.328;12.332;2023-02-15T14:32:13;6.82;;;3.83;;
77589;SDS011;66746;51.328;12.332;2023-02-15T14:34:59;4.30;;;3.65;;
77589;SDS011;66746;51.328;12.332;2023-02-15T14:37:28;5.55;;;4.68;;
77589;SDS011;66746;51.328;12.332;2023-02-15T14:40:03;4.85;;;3.78;;
77589;SDS011;66746;51.328;12.332;2023-02-15T14:42:34;5.78;;;4.30;;
77589;SDS011;66746;51.328;12.332;2023-02-15T14:45:06;5.47;;;4.57;;
77589;SDS011;66746;51.328;12.332;2023-02-15T14:47:44;5.90;;;4.95;;
77589;SDS011;66746;51.328;12.332;2023-02-15T14:50:38;6.28;;;4.53;;